CN-0158 weather

Longtian/Lung-T'ien Air Base
Fujian Province, China

Public forecast

Using degrees Celsius for public forecast. Weather courtesy of forecast.io.

METAR (pilot weather report)

Closest report is Fuzhou Changle International Airport, 24.4 nm (45.1 km) NNE. Retrieved 2019/05/20 00:00 UTC (9 minutes ago):

ZSFZ 200000Z 04007MPS 2100 BR SCT002 BKN003 OVC013 23/22 Q1008 NOSIG

TAF (pilot weather forecast)

Forecast is more than 12 hours old.

Closest forecast is Fuzhou Changle International Airport, 24.4 nm (45.1 km) NNE. Retrieved 2019/05/19 00:00 UTC (1 day ago):

TAF ZSFZ 191922Z 2000/2024 04008MPS 3200 BR BKN005 OVC013 TX27/2006Z TN18/2021Z TEMPO 2004/2010 2500 TSRA SCT005 BKN015 SCT030CB BECMG 2010/2012 BKN015